German Valley, Iowa
Current Conditions -  °F | °C
As of 7:15 AM on Sunday 23 Nov 2014 (Local Time) from KAXA Reporting Station
Haze Haze  
Wind Chill: 50°   Ceiling: 600
Heat Index: 50°   Visibility: 6mi
Dew Point: 50°   Wind: 14mph
Humidity: 100%   Direction: 190°S
Pressure: 29.49"   Gusts: NA
Location:  43.2557°N, 94.0295°W
Report Text: KAXA 231315Z AUTO 19012KT 6SM BR OVC006 10/10 A2949 RMK AO2
Loading
Personal Weather Stations






























Interactive Weather Map New forecast layout! Learn more

10-Day Weather Forecast

Advertisements
Track Severe Weather on mobile